createdAt,value
2023-01-26T04:24:50.069Z,-1.86
2023-01-26T04:28:25.762Z,-1.86
2023-01-26T04:31:43.752Z,-1.83
2023-01-26T04:34:52.395Z,-1.83
2023-01-26T04:41:15.719Z,-1.83
2023-01-26T04:43:47.488Z,-1.84
2023-01-26T04:44:03.951Z,-1.84
2023-01-26T04:46:19.697Z,-1.84
2023-01-26T04:48:49.190Z,-1.83
2023-01-26T04:54:56.536Z,-1.82
2023-01-26T04:58:37.561Z,-1.84
2023-01-26T05:01:52.517Z,-1.83
2023-01-26T05:05:03.387Z,-1.85
2023-01-26T05:12:45.037Z,-1.90
2023-01-26T07:53:21.585Z,-0.98
2023-01-26T07:57:05.884Z,-0.90
2023-01-26T08:11:51.692Z,-0.89
2023-01-26T08:14:46.800Z,-0.88
2023-01-26T09:31:59.046Z,-0.21
2023-01-26T09:43:52.609Z,-0.20
2023-01-26T09:55:21.342Z,-0.23
2023-01-26T10:06:46.572Z,-0.30
2023-01-26T10:13:37.965Z,-0.27
2023-01-26T10:16:08.493Z,-0.25
2023-01-26T10:18:38.053Z,-0.29
2023-01-26T10:24:49.959Z,-0.25
2023-01-26T10:27:29.175Z,-0.24
2023-01-26T10:30:04.457Z,-0.22
2023-01-26T10:32:48.875Z,-0.21
2023-01-26T10:35:23.353Z,-0.19
2023-01-26T10:42:16.853Z,-0.24
2023-01-26T10:44:43.847Z,-0.23
2023-01-26T10:47:21.525Z,-0.20
2023-01-26T10:49:49.157Z,-0.14
2023-01-26T10:52:19.265Z,-0.10
2023-01-26T10:54:46.807Z,-0.15
2023-01-26T11:00:36.891Z,-0.20
2023-01-26T11:03:26.787Z,-0.21
2023-01-26T11:06:07.592Z,-0.24
2023-01-26T11:08:38.136Z,-0.27
2023-01-26T11:11:08.228Z,-0.27
2023-01-26T11:13:36.174Z,-0.25
2023-01-26T11:16:10.281Z,-0.22
2023-01-26T11:18:47.560Z,-0.20
2023-01-26T11:21:38.258Z,-0.20
2023-01-26T11:24:12.374Z,-0.23
2023-01-26T11:27:01.344Z,-0.24
2023-01-26T11:29:57.605Z,-0.27
2023-01-26T11:32:24.566Z,-0.26
2023-01-26T11:34:51.606Z,-0.25
2023-01-26T11:37:18.896Z,-0.24
2023-01-26T11:39:54.931Z,-0.23
2023-01-26T11:42:24.887Z,-0.27
2023-01-26T11:45:07.782Z,-0.28
2023-01-26T11:47:41.309Z,-0.29
2023-01-26T11:50:27.599Z,-0.30
2023-01-26T11:53:16.175Z,-0.33
2023-01-26T11:55:46.134Z,-0.34
2023-01-26T11:58:13.014Z,-0.33
2023-01-26T12:00:49.860Z,-0.31
2023-01-26T12:03:30.179Z,-0.26
2023-01-26T12:06:02.574Z,-0.23
2023-01-26T12:08:38.422Z,-0.21
2023-01-26T12:11:23.834Z,-0.19
2023-01-26T12:14:09.961Z,-0.17
2023-01-26T12:16:48.330Z,-0.16
2023-01-26T12:19:33.632Z,-0.11
2023-01-26T12:22:07.983Z,-0.08
2023-01-26T12:27:41.537Z,-0.02
2023-01-26T12:30:37.411Z,-0.02
2023-01-26T12:33:11.724Z,-0.05
2023-01-26T12:36:04.426Z,-0.07
2023-01-26T12:39:28.061Z,-0.06
2023-01-26T12:42:17.525Z,-0.09
2023-01-26T12:44:44.822Z,-0.11
2023-01-26T12:47:30.250Z,-0.12
2023-01-26T12:50:07.102Z,-0.11
2023-01-26T12:52:41.458Z,-0.07
2023-01-26T13:07:48.835Z,-0.21
2023-01-26T13:11:18.758Z,-0.21
2023-01-26T13:24:55.372Z,-0.24
2023-01-26T13:32:52.505Z,-0.26
2023-01-26T13:40:33.185Z,-0.32
2023-01-26T13:43:25.881Z,-0.27
2023-01-26T13:46:16.829Z,-0.27
2023-01-26T13:48:49.539Z,-0.27
2023-01-26T13:51:22.847Z,-0.25
2023-01-26T13:54:27.330Z,-0.25
2023-01-26T13:57:18.905Z,-0.26
2023-01-26T14:00:12.774Z,-0.29
2023-01-26T14:02:51.572Z,-0.31
2023-01-26T14:05:23.611Z,-0.31
2023-01-26T14:07:51.739Z,-0.33
2023-01-26T14:10:20.615Z,-0.34
2023-01-26T14:13:04.324Z,-0.37
2023-01-26T14:15:33.192Z,-0.37
2023-01-26T14:18:05.456Z,-0.34
2023-01-26T14:24:36.674Z,-0.30
2023-01-26T14:30:54.905Z,-0.30
2023-01-26T14:33:27.922Z,-0.28
2023-01-26T14:36:06.621Z,-0.26
2023-01-26T14:38:44.773Z,-0.25
2023-01-26T14:41:25.101Z,-0.27
2023-01-26T14:43:59.833Z,-0.32
2023-01-26T14:47:07.181Z,-0.29
2023-01-26T14:49:57.933Z,-0.29
2023-01-26T14:52:30.318Z,-0.29
2023-01-26T14:55:01.620Z,-0.28
2023-01-26T14:57:40.870Z,-0.29
2023-01-26T15:00:48.220Z,-0.31
2023-01-26T15:04:00.784Z,-0.31
2023-01-26T15:08:09.015Z,-0.35
2023-01-26T15:11:16.654Z,-0.34
2023-01-26T15:13:54.637Z,-0.34
2023-01-26T15:16:27.047Z,-0.34
2023-01-26T15:19:21.534Z,-0.36
2023-01-26T15:22:09.176Z,-0.37
2023-01-26T15:24:39.053Z,-0.42
2023-01-26T15:36:05.282Z,-0.51
2023-01-26T15:38:36.900Z,-0.51
2023-01-26T15:41:29.469Z,-0.51
2023-01-26T15:44:14.406Z,-0.54
2023-01-26T15:50:45.700Z,-0.64
2023-01-26T15:53:29.299Z,-0.68
2023-01-26T15:56:31.956Z,-0.68
2023-01-26T15:59:18.587Z,-0.70
2023-01-26T16:06:46.447Z,-0.71
2023-01-26T16:16:30.950Z,-0.72
2023-01-26T16:18:58.209Z,-0.73
2023-01-26T16:25:09.900Z,-0.78
2023-01-26T16:27:38.683Z,-0.79
2023-01-26T16:30:07.261Z,-0.79
2023-01-26T16:32:38.662Z,-0.78
2023-01-26T16:35:19.913Z,-0.82
2023-01-26T16:37:50.027Z,-0.87
2023-01-26T16:40:19.785Z,-0.89
2023-01-26T16:42:54.322Z,-0.87
2023-01-26T16:48:46.254Z,-0.88
2023-01-26T16:51:28.925Z,-0.89
2023-01-26T16:54:06.562Z,-0.88
2023-01-26T17:04:43.076Z,-0.88
2023-01-26T17:12:09.063Z,-0.88
2023-01-26T17:14:36.455Z,-0.88
2023-01-26T17:17:04.044Z,-0.89
2023-01-26T17:19:36.067Z,-0.91
2023-01-26T17:22:15.371Z,-0.93
2023-01-26T17:25:32.463Z,-0.94
2023-01-26T17:27:59.463Z,-0.96
2023-01-26T17:30:40.301Z,-0.98
2023-01-26T17:33:07.487Z,-1.00
2023-01-26T17:35:34.791Z,-0.99
2023-01-26T17:38:02.299Z,-0.99
2023-01-26T17:40:31.885Z,-0.99
2023-01-26T17:43:00.089Z,-1.02
2023-01-26T17:45:30.223Z,-1.04
2023-01-26T17:47:58.687Z,-1.08
2023-01-26T17:50:27.764Z,-1.13
2023-01-26T17:52:54.713Z,-1.12
2023-01-26T18:19:19.155Z,-1.06
2023-01-26T18:22:18.323Z,-1.09
2023-01-26T18:24:51.071Z,-1.09
2023-01-26T18:27:20.714Z,-1.07
2023-01-26T18:31:02.882Z,-1.05
2023-01-26T18:34:15.694Z,-1.01
2023-01-26T18:37:16.212Z,-1.01
2023-01-26T18:39:43.627Z,-0.97
2023-01-26T18:53:48.306Z,-1.12
2023-01-26T19:00:09.669Z,-1.10
2023-01-26T19:06:26.787Z,-1.10
2023-01-26T19:09:04.857Z,-1.10
2023-01-26T19:14:20.607Z,-1.10
2023-01-26T19:16:50.197Z,-1.13
2023-01-26T19:19:17.406Z,-1.17
2023-01-26T19:21:44.521Z,-1.15
2023-01-26T19:24:11.736Z,-1.14
2023-01-26T19:26:39.329Z,-1.15
2023-01-26T19:29:10.048Z,-1.14
2023-01-26T19:31:38.580Z,-1.12
2023-01-26T19:34:07.881Z,-1.17
2023-01-26T19:36:39.423Z,-1.18
2023-01-26T19:39:07.709Z,-1.21
2023-01-26T19:41:38.223Z,-1.20
2023-01-26T19:44:07.724Z,-1.22
2023-01-26T19:47:00.180Z,-1.23
2023-01-26T19:49:28.614Z,-1.22
2023-01-26T19:51:56.798Z,-1.21
2023-01-26T19:54:26.522Z,-1.22
2023-01-26T19:56:53.527Z,-1.24
2023-01-26T19:59:22.779Z,-1.27
2023-01-26T20:01:49.881Z,-1.27
2023-01-26T20:04:17.213Z,-1.26
2023-01-26T20:06:48.590Z,-1.25
2023-01-26T20:09:16.135Z,-1.23
2023-01-26T20:11:43.155Z,-1.24
2023-01-26T20:14:11.160Z,-1.29
2023-01-26T20:16:38.435Z,-1.31
2023-01-26T20:19:09.572Z,-1.32
2023-01-26T20:21:38.945Z,-1.35
2023-01-26T20:24:07.154Z,-1.34
2023-01-26T20:26:34.891Z,-1.34
2023-01-26T20:29:02.251Z,-1.33
2023-01-26T20:31:29.847Z,-1.32
2023-01-26T20:33:56.920Z,-1.34
2023-01-26T20:36:25.260Z,-1.36
2023-01-26T20:38:52.636Z,-1.38
2023-01-26T20:41:24.884Z,-1.42
2023-01-26T20:44:01.131Z,-1.41
2023-01-26T20:46:35.002Z,-1.40
2023-01-26T20:51:47.302Z,-1.38
2023-01-26T20:54:19.089Z,-1.40
2023-01-26T20:56:46.535Z,-1.38
2023-01-26T20:59:13.533Z,-1.40
2023-01-26T21:01:40.594Z,-1.37
2023-01-26T21:04:07.775Z,-1.36
2023-01-26T21:06:35.443Z,-1.37
2023-01-26T21:09:05.368Z,-1.35
2023-01-26T21:11:32.570Z,-1.36
2023-01-26T21:14:03.553Z,-1.38
2023-01-26T21:16:31.916Z,-1.37
2023-01-26T21:18:59.179Z,-1.34
2023-01-26T21:21:26.418Z,-1.33
2023-01-26T21:23:53.702Z,-1.33
2023-01-26T21:26:22.717Z,-1.34
2023-01-26T21:28:52.903Z,-1.35
2023-01-26T21:31:23.948Z,-1.36
2023-01-26T21:33:52.231Z,-1.36
2023-01-26T21:36:24.326Z,-1.40
2023-01-26T21:38:59.870Z,-1.41
2023-01-26T21:41:49.676Z,-1.45
2023-01-26T21:44:20.735Z,-1.49
2023-01-26T21:46:48.361Z,-1.49
2023-01-26T21:53:50.411Z,-1.48
2023-01-26T21:56:17.328Z,-1.49
2023-01-26T21:59:02.493Z,-1.49
2023-01-26T22:01:30.663Z,-1.48
2023-01-26T22:04:02.383Z,-1.50
2023-01-26T22:06:29.624Z,-1.50
2023-01-26T22:08:58.678Z,-1.52
2023-01-26T22:11:26.106Z,-1.55
2023-01-26T22:13:53.290Z,-1.57
2023-01-26T22:16:20.132Z,-1.58
2023-01-26T22:18:48.482Z,-1.60
2023-01-26T22:21:16.072Z,-1.62
2023-01-26T22:23:43.101Z,-1.66
2023-01-26T22:26:17.899Z,-1.71
2023-01-26T22:28:50.334Z,-1.72
2023-01-26T22:31:18.188Z,-1.70
2023-01-26T22:33:45.528Z,-1.68
2023-01-26T22:36:13.039Z,-1.65
2023-01-26T22:38:42.228Z,-1.64
2023-01-26T22:41:14.222Z,-1.64
2023-01-26T22:43:41.581Z,-1.66
2023-01-26T22:46:10.136Z,-1.68
2023-01-26T22:48:37.476Z,-1.69
2023-01-26T22:51:12.058Z,-1.70
2023-01-26T22:53:39.009Z,-1.73
2023-01-26T22:56:06.592Z,-1.78
2023-01-26T22:58:35.222Z,-1.82
2023-01-26T23:01:14.382Z,-1.83
2023-01-26T23:03:44.419Z,-1.83
2023-01-26T23:06:12.556Z,-1.76
2023-01-26T23:08:39.921Z,-1.76
2023-01-26T23:11:06.721Z,-1.74
2023-01-26T23:13:34.349Z,-1.74
2023-01-26T23:16:01.807Z,-1.72
2023-01-26T23:18:29.015Z,-1.66
2023-01-26T23:20:56.162Z,-1.61
2023-01-26T23:23:23.095Z,-1.62
2023-01-26T23:25:53.080Z,-1.61
2023-01-26T23:28:28.022Z,-1.67
2023-01-26T23:30:55.743Z,-1.72
2023-01-26T23:33:23.219Z,-1.77
2023-01-26T23:35:50.039Z,-1.83
2023-01-26T23:38:18.419Z,-1.84
2023-01-26T23:40:48.238Z,-1.83
2023-01-26T23:43:18.811Z,-1.87
2023-01-26T23:45:46.721Z,-1.90
2023-01-26T23:48:14.064Z,-1.93
2023-01-26T23:50:41.298Z,-1.92
2023-01-26T23:53:08.184Z,-1.94
2023-01-26T23:55:39.586Z,-1.95
2023-01-26T23:58:06.383Z,-1.97
